sensor_id;sensor_type;location;lat;lon;timestamp;temperature;humidity
23991;DHT22;12205;50.600;4.608;2023-05-16T00:01:12;10.50;99.90
23991;DHT22;12205;50.600;4.608;2023-05-16T00:03:39;10.40;99.90
23991;DHT22;12205;50.600;4.608;2023-05-16T00:06:07;10.40;99.90
23991;DHT22;12205;50.600;4.608;2023-05-16T00:08:34;10.50;99.90
23991;DHT22;12205;50.600;4.608;2023-05-16T00:11:01;10.50;99.90
23991;DHT22;12205;50.600;4.608;2023-05-16T00:13:28;10.50;99.90
23991;DHT22;12205;50.600;4.608;2023-05-16T00:15:55;10.50;99.90
23991;DHT22;12205;50.600;4.608;2023-05-16T00:18:23;10.50;99.90
23991;DHT22;12205;50.600;4.608;2023-05-16T00:20:51;10.50;99.90
23991;DHT22;12205;50.600;4.608;2023-05-16T00:23:19;10.50;99.90
23991;DHT22;12205;50.600;4.608;2023-05-16T00:25:46;10.40;99.90
23991;DHT22;12205;50.600;4.608;2023-05-16T00:28:13;10.30;99.90
23991;DHT22;12205;50.600;4.608;2023-05-16T00:30:40;10.30;99.90
23991;DHT22;12205;50.600;4.608;2023-05-16T00:33:07;10.30;99.90
23991;DHT22;12205;50.600;4.608;2023-05-16T00:35:35;10.30;99.90
23991;DHT22;12205;50.600;4.608;2023-05-16T00:38:02;10.30;99.90
23991;DHT22;12205;50.600;4.608;2023-05-16T00:40:29;10.30;99.90
23991;DHT22;12205;50.600;4.608;2023-05-16T00:42:57;10.20;99.90
23991;DHT22;12205;50.600;4.608;2023-05-16T00:45:26;10.30;99.90
23991;DHT22;12205;50.600;4.608;2023-05-16T00:47:53;10.20;99.90
23991;DHT22;12205;50.600;4.608;2023-05-16T00:50:20;10.20;99.90
23991;DHT22;12205;50.600;4.608;2023-05-16T00:52:49;10.20;99.90
23991;DHT22;12205;50.600;4.608;2023-05-16T00:55:16;10.10;99.90
23991;DHT22;12205;50.600;4.608;2023-05-16T00:57:43;10.10;99.90
23991;DHT22;12205;50.600;4.608;2023-05-16T01:00:12;10.10;99.90
23991;DHT22;12205;50.600;4.608;2023-05-16T01:02:40;10.10;99.90
23991;DHT22;12205;50.600;4.608;2023-05-16T01:05:08;10.00;99.90
23991;DHT22;12205;50.600;4.608;2023-05-16T01:07:35;9.90;99.90
23991;DHT22;12205;50.600;4.608;2023-05-16T01:10:05;9.90;99.90
23991;DHT22;12205;50.600;4.608;2023-05-16T01:12:37;9.90;99.90
23991;DHT22;12205;50.600;4.608;2023-05-16T01:15:10;9.80;99.90
23991;DHT22;12205;50.600;4.608;2023-05-16T01:17:47;9.80;99.90
23991;DHT22;12205;50.600;4.608;2023-05-16T01:20:24;9.70;99.90
23991;DHT22;12205;50.600;4.608;2023-05-16T01:23:19;9.70;99.90
23991;DHT22;12205;50.600;4.608;2023-05-16T01:25:56;9.70;
23991;DHT22;12205;50.600;4.608;2023-05-16T01:28:29;9.60;99.90
23991;DHT22;12205;50.600;4.608;2023-05-16T01:30:57;9.60;99.90
23991;DHT22;12205;50.600;4.608;2023-05-16T01:33:23;9.50;99.90
23991;DHT22;12205;50.600;4.608;2023-05-16T01:35:57;9.40;99.90
23991;DHT22;12205;50.600;4.608;2023-05-16T01:38:36;9.40;99.90
23991;DHT22;12205;50.600;4.608;2023-05-16T01:41:14;9.40;99.90
23991;DHT22;12205;50.600;4.608;2023-05-16T01:43:45;9.40;99.90
23991;DHT22;12205;50.600;4.608;2023-05-16T01:46:15;9.40;99.90
23991;DHT22;12205;50.600;4.608;2023-05-16T01:48:51;9.40;99.90
23991;DHT22;12205;50.600;4.608;2023-05-16T01:51:21;9.30;99.90
23991;DHT22;12205;50.600;4.608;2023-05-16T01:53:49;9.20;99.90
23991;DHT22;12205;50.600;4.608;2023-05-16T01:56:17;9.20;99.90
23991;DHT22;12205;50.600;4.608;2023-05-16T01:58:47;9.20;99.90
23991;DHT22;12205;50.600;4.608;2023-05-16T02:01:15;9.10;99.90
23991;DHT22;12205;50.600;4.608;2023-05-16T02:03:42;9.10;99.90
23991;DHT22;12205;50.600;4.608;2023-05-16T02:06:09;9.10;99.90
23991;DHT22;12205;50.600;4.608;2023-05-16T02:08:36;9.00;99.90
23991;DHT22;12205;50.600;4.608;2023-05-16T02:11:03;9.00;99.90
23991;DHT22;12205;50.600;4.608;2023-05-16T02:13:30;9.00;99.90
23991;DHT22;12205;50.600;4.608;2023-05-16T02:16:04;8.90;99.90
23991;DHT22;12205;50.600;4.608;2023-05-16T02:18:30;8.80;99.90
23991;DHT22;12205;50.600;4.608;2023-05-16T02:20:57;8.80;99.90
23991;DHT22;12205;50.600;4.608;2023-05-16T02:23:24;8.80;99.90
23991;DHT22;12205;50.600;4.608;2023-05-16T02:25:52;8.80;99.90
23991;DHT22;12205;50.600;4.608;2023-05-16T02:28:21;8.80;99.90
23991;DHT22;12205;50.600;4.608;2023-05-16T02:30:55;8.80;99.90
23991;DHT22;12205;50.600;4.608;2023-05-16T02:33:24;8.70;99.90
23991;DHT22;12205;50.600;4.608;2023-05-16T02:35:51;8.80;99.90
23991;DHT22;12205;50.600;4.608;2023-05-16T02:38:18;8.70;99.90
23991;DHT22;12205;50.600;4.608;2023-05-16T02:40:47;8.70;99.90
23991;DHT22;12205;50.600;4.608;2023-05-16T02:43:14;8.70;99.90
23991;DHT22;12205;50.600;4.608;2023-05-16T02:45:41;8.60;99.90
23991;DHT22;12205;50.600;4.608;2023-05-16T02:48:08;8.60;99.90
23991;DHT22;12205;50.600;4.608;2023-05-16T02:50:37;8.60;99.90
23991;DHT22;12205;50.600;4.608;2023-05-16T02:53:05;8.60;99.90
23991;DHT22;12205;50.600;4.608;2023-05-16T02:55:32;8.60;99.90
23991;DHT22;12205;50.600;4.608;2023-05-16T02:57:59;8.50;99.90
23991;DHT22;12205;50.600;4.608;2023-05-16T03:00:26;8.50;99.90
23991;DHT22;12205;50.600;4.608;2023-05-16T03:02:53;8.50;99.90
23991;DHT22;12205;50.600;4.608;2023-05-16T03:05:20;8.50;99.90
23991;DHT22;12205;50.600;4.608;2023-05-16T03:07:48;8.50;99.90
23991;DHT22;12205;50.600;4.608;2023-05-16T03:10:15;8.50;99.90
23991;DHT22;12205;50.600;4.608;2023-05-16T03:12:44;8.50;99.90
23991;DHT22;12205;50.600;4.608;2023-05-16T03:15:11;8.40;99.90
23991;DHT22;12205;50.600;4.608;2023-05-16T03:17:38;8.40;99.90
23991;DHT22;12205;50.600;4.608;2023-05-16T03:20:07;8.40;99.90
23991;DHT22;12205;50.600;4.608;2023-05-16T03:22:35;8.40;99.90
23991;DHT22;12205;50.600;4.608;2023-05-16T03:25:04;8.40;99.90
23991;DHT22;12205;50.600;4.608;2023-05-16T03:27:32;8.40;99.90
23991;DHT22;12205;50.600;4.608;2023-05-16T03:29:59;8.30;99.90
23991;DHT22;12205;50.600;4.608;2023-05-16T03:32:26;8.40;99.90
23991;DHT22;12205;50.600;4.608;2023-05-16T03:34:53;8.30;99.90
23991;DHT22;12205;50.600;4.608;2023-05-16T03:37:20;8.30;99.90
23991;DHT22;12205;50.600;4.608;2023-05-16T03:39:47;8.30;99.90
23991;DHT22;12205;50.600;4.608;2023-05-16T03:42:15;8.30;99.90
23991;DHT22;12205;50.600;4.608;2023-05-16T03:44:43;8.30;99.90
23991;DHT22;12205;50.600;4.608;2023-05-16T03:47:09;8.30;99.90
23991;DHT22;12205;50.600;4.608;2023-05-16T03:49:36;8.30;99.90
23991;DHT22;12205;50.600;4.608;2023-05-16T03:52:04;8.20;99.90
23991;DHT22;12205;50.600;4.608;2023-05-16T03:54:31;8.20;99.90
23991;DHT22;12205;50.600;4.608;2023-05-16T03:56:58;8.20;99.90
23991;DHT22;12205;50.600;4.608;2023-05-16T03:59:26;8.20;99.90
23991;DHT22;12205;50.600;4.608;2023-05-16T04:01:53;8.10;99.90
23991;DHT22;12205;50.600;4.608;2023-05-16T04:04:20;8.10;99.90
23991;DHT22;12205;50.600;4.608;2023-05-16T04:06:47;8.10;99.90
23991;DHT22;12205;50.600;4.608;2023-05-16T04:09:13;8.10;99.90
23991;DHT22;12205;50.600;4.608;2023-05-16T04:11:40;8.10;99.90
23991;DHT22;12205;50.600;4.608;2023-05-16T04:14:07;8.00;99.90
23991;DHT22;12205;50.600;4.608;2023-05-16T04:16:36;8.00;99.90
23991;DHT22;12205;50.600;4.608;2023-05-16T04:19:03;8.00;99.90
23991;DHT22;12205;50.600;4.608;2023-05-16T04:21:29;7.90;99.90
23991;DHT22;12205;50.600;4.608;2023-05-16T04:23:56;8.00;99.90
23991;DHT22;12205;50.600;4.608;2023-05-16T04:26:23;7.90;99.90
23991;DHT22;12205;50.600;4.608;2023-05-16T04:28:52;7.90;99.90
23991;DHT22;12205;50.600;4.608;2023-05-16T04:31:19;7.90;99.90
23991;DHT22;12205;50.600;4.608;2023-05-16T04:33:48;7.90;99.90
23991;DHT22;12205;50.600;4.608;2023-05-16T04:36:15;7.90;99.90
23991;DHT22;12205;50.600;4.608;2023-05-16T04:38:42;7.80;99.90
23991;DHT22;12205;50.600;4.608;2023-05-16T04:41:08;7.90;99.90
23991;DHT22;12205;50.600;4.608;2023-05-16T04:43:35;7.80;99.90
23991;DHT22;12205;50.600;4.608;2023-05-16T04:46:02;7.80;99.90
23991;DHT22;12205;50.600;4.608;2023-05-16T04:48:29;7.80;99.90
23991;DHT22;12205;50.600;4.608;2023-05-16T04:50:58;7.90;99.90
23991;DHT22;12205;50.600;4.608;2023-05-16T04:53:25;7.80;99.90
23991;DHT22;12205;50.600;4.608;2023-05-16T04:55:52;7.80;99.90
23991;DHT22;12205;50.600;4.608;2023-05-16T04:58:19;7.80;99.90
23991;DHT22;12205;50.600;4.608;2023-05-16T05:00:48;7.90;99.90
23991;DHT22;12205;50.600;4.608;2023-05-16T05:03:16;7.90;99.90
23991;DHT22;12205;50.600;4.608;2023-05-16T05:05:43;8.00;99.90
23991;DHT22;12205;50.600;4.608;2023-05-16T05:08:12;8.00;99.90
23991;DHT22;12205;50.600;4.608;2023-05-16T05:10:39;8.00;99.90
23991;DHT22;12205;50.600;4.608;2023-05-16T05:13:06;8.10;99.90
23991;DHT22;12205;50.600;4.608;2023-05-16T05:15:33;8.10;99.90
23991;DHT22;12205;50.600;4.608;2023-05-16T05:18:00;8.10;99.90
23991;DHT22;12205;50.600;4.608;2023-05-16T05:20:27;8.20;99.90
23991;DHT22;12205;50.600;4.608;2023-05-16T05:22:54;8.20;99.90
23991;DHT22;12205;50.600;4.608;2023-05-16T05:25:22;8.20;99.90
23991;DHT22;12205;50.600;4.608;2023-05-16T05:27:49;8.30;99.90
23991;DHT22;12205;50.600;4.608;2023-05-16T05:30:16;8.30;99.90
23991;DHT22;12205;50.600;4.608;2023-05-16T05:32:43;8.30;99.90
23991;DHT22;12205;50.600;4.608;2023-05-16T05:35:10;8.30;99.90
23991;DHT22;12205;50.600;4.608;2023-05-16T05:37:37;8.40;99.90
23991;DHT22;12205;50.600;4.608;2023-05-16T05:40:05;8.40;99.90
23991;DHT22;12205;50.600;4.608;2023-05-16T05:42:33;8.40;99.90
23991;DHT22;12205;50.600;4.608;2023-05-16T05:45:00;8.50;99.90
23991;DHT22;12205;50.600;4.608;2023-05-16T05:47:27;8.50;99.90
23991;DHT22;12205;50.600;4.608;2023-05-16T05:49:54;8.50;99.90
23991;DHT22;12205;50.600;4.608;2023-05-16T05:52:21;8.60;99.90
23991;DHT22;12205;50.600;4.608;2023-05-16T05:54:48;8.60;99.90
23991;DHT22;12205;50.600;4.608;2023-05-16T05:57:15;8.60;99.90
23991;DHT22;12205;50.600;4.608;2023-05-16T05:59:43;8.70;99.90
23991;DHT22;12205;50.600;4.608;2023-05-16T06:02:11;8.70;99.90
23991;DHT22;12205;50.600;4.608;2023-05-16T06:04:38;8.80;99.90
23991;DHT22;12205;50.600;4.608;2023-05-16T06:07:07;8.80;99.90
23991;DHT22;12205;50.600;4.608;2023-05-16T06:09:34;8.90;99.90
23991;DHT22;12205;50.600;4.608;2023-05-16T06:12:01;8.90;99.90
23991;DHT22;12205;50.600;4.608;2023-05-16T06:14:28;8.90;99.90
23991;DHT22;12205;50.600;4.608;2023-05-16T06:16:57;8.90;99.90
23991;DHT22;12205;50.600;4.608;2023-05-16T06:19:24;9.00;99.90
23991;DHT22;12205;50.600;4.608;2023-05-16T06:21:51;9.00;99.90
23991;DHT22;12205;50.600;4.608;2023-05-16T06:24:18;9.10;99.90
23991;DHT22;12205;50.600;4.608;2023-05-16T06:26:45;9.20;99.90
23991;DHT22;12205;50.600;4.608;2023-05-16T06:29:14;9.30;99.90
23991;DHT22;12205;50.600;4.608;2023-05-16T06:31:41;9.40;99.90
23991;DHT22;12205;50.600;4.608;2023-05-16T06:34:09;9.40;99.90
23991;DHT22;12205;50.600;4.608;2023-05-16T06:36:36;9.50;99.90
23991;DHT22;12205;50.600;4.608;2023-05-16T06:39:03;9.50;99.90
23991;DHT22;12205;50.600;4.608;2023-05-16T06:41:30;9.60;99.90
23991;DHT22;12205;50.600;4.608;2023-05-16T06:43:57;9.60;99.90
23991;DHT22;12205;50.600;4.608;2023-05-16T06:46:24;9.60;99.90
23991;DHT22;12205;50.600;4.608;2023-05-16T06:48:51;9.70;99.90
23991;DHT22;12205;50.600;4.608;2023-05-16T06:51:19;9.70;99.90
23991;DHT22;12205;50.600;4.608;2023-05-16T06:53:46;9.80;99.90
23991;DHT22;12205;50.600;4.608;2023-05-16T06:56:13;9.80;99.90
23991;DHT22;12205;50.600;4.608;2023-05-16T06:58:40;10.00;99.90
23991;DHT22;12205;50.600;4.608;2023-05-16T07:01:07;10.20;99.90
23991;DHT22;12205;50.600;4.608;2023-05-16T07:03:34;10.30;99.90
23991;DHT22;12205;50.600;4.608;2023-05-16T07:06:01;10.50;99.90
23991;DHT22;12205;50.600;4.608;2023-05-16T07:08:29;10.70;99.90
23991;DHT22;12205;50.600;4.608;2023-05-16T07:10:56;10.80;99.90
23991;DHT22;12205;50.600;4.608;2023-05-16T07:13:23;10.90;99.90
23991;DHT22;12205;50.600;4.608;2023-05-16T07:15:50;11.10;99.90
23991;DHT22;12205;50.600;4.608;2023-05-16T07:18:17;11.20;99.90
23991;DHT22;12205;50.600;4.608;2023-05-16T07:20:44;11.30;99.90
23991;DHT22;12205;50.600;4.608;2023-05-16T07:23:11;11.30;99.90
23991;DHT22;12205;50.600;4.608;2023-05-16T07:25:39;11.40;99.90
23991;DHT22;12205;50.600;4.608;2023-05-16T07:28:06;11.40;99.90
23991;DHT22;12205;50.600;4.608;2023-05-16T07:30:33;11.50;99.90
23991;DHT22;12205;50.600;4.608;2023-05-16T07:33:00;11.70;99.90
23991;DHT22;12205;50.600;4.608;2023-05-16T07:35:27;11.80;99.90
23991;DHT22;12205;50.600;4.608;2023-05-16T07:37:54;11.90;99.90
23991;DHT22;12205;50.600;4.608;2023-05-16T07:40:21;12.10;99.90
23991;DHT22;12205;50.600;4.608;2023-05-16T07:42:51;12.20;99.90
23991;DHT22;12205;50.600;4.608;2023-05-16T07:45:18;12.20;99.90
23991;DHT22;12205;50.600;4.608;2023-05-16T07:47:45;12.30;99.90
23991;DHT22;12205;50.600;4.608;2023-05-16T07:50:12;12.30;99.90
23991;DHT22;12205;50.600;4.608;2023-05-16T07:52:39;12.40;99.90
23991;DHT22;12205;50.600;4.608;2023-05-16T07:55:07;12.40;99.90
23991;DHT22;12205;50.600;4.608;2023-05-16T07:57:34;12.30;99.90
23991;DHT22;12205;50.600;4.608;2023-05-16T08:00:03;12.20;99.90
23991;DHT22;12205;50.600;4.608;2023-05-16T08:02:37;12.20;99.90
23991;DHT22;12205;50.600;4.608;2023-05-16T08:05:05;12.00;99.90
23991;DHT22;12205;50.600;4.608;2023-05-16T08:07:32;12.00;99.90
23991;DHT22;12205;50.600;4.608;2023-05-16T08:09:59;11.90;99.90
23991;DHT22;12205;50.600;4.608;2023-05-16T08:12:26;11.90;99.90
23991;DHT22;12205;50.600;4.608;2023-05-16T08:14:53;11.90;99.90
23991;DHT22;12205;50.600;4.608;2023-05-16T08:17:21;11.80;99.90
23991;DHT22;12205;50.600;4.608;2023-05-16T08:19:48;11.80;99.90
23991;DHT22;12205;50.600;4.608;2023-05-16T08:22:15;11.90;99.90
23991;DHT22;12205;50.600;4.608;2023-05-16T08:24:42;12.00;99.90
23991;DHT22;12205;50.600;4.608;2023-05-16T08:27:09;12.10;99.90
23991;DHT22;12205;50.600;4.608;2023-05-16T08:29:36;12.20;99.90
23991;DHT22;12205;50.600;4.608;2023-05-16T08:32:04;12.30;99.90
23991;DHT22;12205;50.600;4.608;2023-05-16T08:34:32;12.40;99.90
23991;DHT22;12205;50.600;4.608;2023-05-16T08:36:59;12.40;99.90
23991;DHT22;12205;50.600;4.608;2023-05-16T08:39:26;12.40;99.90
23991;DHT22;12205;50.600;4.608;2023-05-16T08:41:55;12.40;99.90
23991;DHT22;12205;50.600;4.608;2023-05-16T08:44:23;12.40;99.90
23991;DHT22;12205;50.600;4.608;2023-05-16T08:46:52;12.40;99.90
23991;DHT22;12205;50.600;4.608;2023-05-16T08:49:20;12.50;99.90
23991;DHT22;12205;50.600;4.608;2023-05-16T08:51:50;12.50;99.90
23991;DHT22;12205;50.600;4.608;2023-05-16T08:54:17;12.50;99.90
23991;DHT22;12205;50.600;4.608;2023-05-16T08:56:45;12.60;99.90
23991;DHT22;12205;50.600;4.608;2023-05-16T08:59:13;12.60;99.90
23991;DHT22;12205;50.600;4.608;2023-05-16T09:01:40;12.70;99.90
23991;DHT22;12205;50.600;4.608;2023-05-16T09:04:08;12.80;99.90
23991;DHT22;12205;50.600;4.608;2023-05-16T09:06:35;12.90;99.90
23991;DHT22;12205;50.600;4.608;2023-05-16T09:09:04;13.00;99.90
23991;DHT22;12205;50.600;4.608;2023-05-16T09:11:32;13.10;99.90
23991;DHT22;12205;50.600;4.608;2023-05-16T09:14:00;13.20;99.90
23991;DHT22;12205;50.600;4.608;2023-05-16T09:16:27;13.20;99.90
23991;DHT22;12205;50.600;4.608;2023-05-16T09:18:55;13.30;99.90
23991;DHT22;12205;50.600;4.608;2023-05-16T09:21:27;13.30;99.90
23991;DHT22;12205;50.600;4.608;2023-05-16T09:23:54;13.40;99.90
23991;DHT22;12205;50.600;4.608;2023-05-16T09:26:22;13.50;99.90
23991;DHT22;12205;50.600;4.608;2023-05-16T09:28:52;13.50;99.90
23991;DHT22;12205;50.600;4.608;2023-05-16T09:31:21;13.40;99.90
23991;DHT22;12205;50.600;4.608;2023-05-16T09:33:49;13.50;99.90
23991;DHT22;12205;50.600;4.608;2023-05-16T09:36:16;13.50;99.90
23991;DHT22;12205;50.600;4.608;2023-05-16T09:38:43;13.50;99.90
23991;DHT22;12205;50.600;4.608;2023-05-16T09:41:10;13.60;99.90
23991;DHT22;12205;50.600;4.608;2023-05-16T09:43:40;13.60;99.90
23991;DHT22;12205;50.600;4.608;2023-05-16T09:46:10;13.50;99.90
23991;DHT22;12205;50.600;4.608;2023-05-16T09:48:40;13.60;99.90
23991;DHT22;12205;50.600;4.608;2023-05-16T09:51:07;13.60;99.90
23991;DHT22;12205;50.600;4.608;2023-05-16T09:53:34;13.60;99.90
23991;DHT22;12205;50.600;4.608;2023-05-16T09:56:04;13.70;99.90
23991;DHT22;12205;50.600;4.608;2023-05-16T09:58:33;13.80;99.90
23991;DHT22;12205;50.600;4.608;2023-05-16T10:01:02;13.80;99.90
23991;DHT22;12205;50.600;4.608;2023-05-16T10:03:29;13.90;99.90
23991;DHT22;12205;50.600;4.608;2023-05-16T10:05:57;14.00;99.90
23991;DHT22;12205;50.600;4.608;2023-05-16T10:08:26;14.00;99.90
23991;DHT22;12205;50.600;4.608;2023-05-16T10:10:54;14.00;99.90
23991;DHT22;12205;50.600;4.608;2023-05-16T10:13:23;14.00;99.90
23991;DHT22;12205;50.600;4.608;2023-05-16T10:15:51;14.10;99.90
23991;DHT22;12205;50.600;4.608;2023-05-16T10:18:21;14.10;99.90
23991;DHT22;12205;50.600;4.608;2023-05-16T10:20:52;14.20;99.90
23991;DHT22;12205;50.600;4.608;2023-05-16T10:23:20;14.20;99.90
23991;DHT22;12205;50.600;4.608;2023-05-16T10:25:48;14.30;99.90
23991;DHT22;12205;50.600;4.608;2023-05-16T10:28:15;14.30;99.90
23991;DHT22;12205;50.600;4.608;2023-05-16T10:30:44;14.40;99.90
23991;DHT22;12205;50.600;4.608;2023-05-16T10:33:12;14.50;99.90
23991;DHT22;12205;50.600;4.608;2023-05-16T10:35:41;14.70;99.90
23991;DHT22;12205;50.600;4.608;2023-05-16T10:38:10;14.80;99.90
23991;DHT22;12205;50.600;4.608;2023-05-16T10:40:38;15.00;99.90
23991;DHT22;12205;50.600;4.608;2023-05-16T10:43:07;15.20;99.90
23991;DHT22;12205;50.600;4.608;2023-05-16T10:45:34;15.30;99.90
23991;DHT22;12205;50.600;4.608;2023-05-16T10:48:05;15.50;99.90
23991;DHT22;12205;50.600;4.608;2023-05-16T10:50:36;15.60;99.90
23991;DHT22;12205;50.600;4.608;2023-05-16T10:53:16;15.60;99.90
23991;DHT22;12205;50.600;4.608;2023-05-16T10:55:48;15.80;99.90
23991;DHT22;12205;50.600;4.608;2023-05-16T10:58:22;15.70;99.90
23991;DHT22;12205;50.600;4.608;2023-05-16T11:00:55;15.60;99.90
23991;DHT22;12205;50.600;4.608;2023-05-16T11:04:06;15.60;99.90
23991;DHT22;12205;50.600;4.608;2023-05-16T11:06:34;15.70;99.90
23991;DHT22;12205;50.600;4.608;2023-05-16T11:09:06;15.90;99.90
23991;DHT22;12205;50.600;4.608;2023-05-16T11:11:39;16.00;99.90
23991;DHT22;12205;50.600;4.608;2023-05-16T11:14:06;16.10;99.90
23991;DHT22;12205;50.600;4.608;2023-05-16T11:16:33;16.20;99.90
23991;DHT22;12205;50.600;4.608;2023-05-16T11:19:04;16.20;99.90
23991;DHT22;12205;50.600;4.608;2023-05-16T11:24:34;16.20;99.90
23991;DHT22;12205;50.600;4.608;2023-05-16T11:27:02;16.00;99.90
23991;DHT22;12205;50.600;4.608;2023-05-16T11:29:31;15.90;99.90
23991;DHT22;12205;50.600;4.608;2023-05-16T11:31:59;15.90;99.90
23991;DHT22;12205;50.600;4.608;2023-05-16T11:34:26;15.90;99.90
23991;DHT22;12205;50.600;4.608;2023-05-16T11:36:53;16.00;99.90
23991;DHT22;12205;50.600;4.608;2023-05-16T11:39:20;16.10;99.90
23991;DHT22;12205;50.600;4.608;2023-05-16T11:41:50;16.30;99.90
23991;DHT22;12205;50.600;4.608;2023-05-16T11:44:18;16.60;99.90
23991;DHT22;12205;50.600;4.608;2023-05-16T11:46:45;17.00;99.90
23991;DHT22;12205;50.600;4.608;2023-05-16T11:49:12;17.30;99.90
23991;DHT22;12205;50.600;4.608;2023-05-16T11:51:40;17.20;99.90
23991;DHT22;12205;50.600;4.608;2023-05-16T11:54:08;17.30;99.90
23991;DHT22;12205;50.600;4.608;2023-05-16T11:56:38;17.30;99.90
23991;DHT22;12205;50.600;4.608;2023-05-16T11:59:06;17.30;99.90
23991;DHT22;12205;50.600;4.608;2023-05-16T12:01:34;17.30;99.90
23991;DHT22;12205;50.600;4.608;2023-05-16T12:04:02;17.50;99.90
23991;DHT22;12205;50.600;4.608;2023-05-16T12:06:33;17.80;99.90
23991;DHT22;12205;50.600;4.608;2023-05-16T12:09:00;18.10;99.90
23991;DHT22;12205;50.600;4.608;2023-05-16T12:11:31;18.40;99.90
23991;DHT22;12205;50.600;4.608;2023-05-16T12:13:57;18.70;99.90
23991;DHT22;12205;50.600;4.608;2023-05-16T12:16:26;18.90;99.90
23991;DHT22;12205;50.600;4.608;2023-05-16T12:18:53;19.10;99.90
23991;DHT22;12205;50.600;4.608;2023-05-16T12:21:20;18.90;99.90
23991;DHT22;12205;50.600;4.608;2023-05-16T12:23:47;19.10;99.90
23991;DHT22;12205;50.600;4.608;2023-05-16T12:26:14;19.40;99.90
23991;DHT22;12205;50.600;4.608;2023-05-16T12:28:52;20.00;99.90
23991;DHT22;12205;50.600;4.608;2023-05-16T12:31:21;20.40;99.90
23991;DHT22;12205;50.600;4.608;2023-05-16T12:33:52;20.30;99.90
23991;DHT22;12205;50.600;4.608;2023-05-16T12:36:19;19.80;99.90
23991;DHT22;12205;50.600;4.608;2023-05-16T12:38:46;19.50;99.90
23991;DHT22;12205;50.600;4.608;2023-05-16T12:41:17;19.20;99.90
23991;DHT22;12205;50.600;4.608;2023-05-16T12:43:44;19.10;99.90
23991;DHT22;12205;50.600;4.608;2023-05-16T12:46:11;19.00;99.90
23991;DHT22;12205;50.600;4.608;2023-05-16T12:48:38;19.10;99.90
23991;DHT22;12205;50.600;4.608;2023-05-16T12:51:15;19.40;99.90
23991;DHT22;12205;50.600;4.608;2023-05-16T12:53:43;19.80;99.90
23991;DHT22;12205;50.600;4.608;2023-05-16T12:56:11;20.40;99.90
23991;DHT22;12205;50.600;4.608;2023-05-16T12:58:40;20.90;99.90
23991;DHT22;12205;50.600;4.608;2023-05-16T13:01:07;20.80;99.90
23991;DHT22;12205;50.600;4.608;2023-05-16T13:03:35;20.60;99.90
23991;DHT22;12205;50.600;4.608;2023-05-16T13:06:02;20.60;99.90
23991;DHT22;12205;50.600;4.608;2023-05-16T13:08:31;20.80;99.90
23991;DHT22;12205;50.600;4.608;2023-05-16T13:10:59;21.00;99.90
23991;DHT22;12205;50.600;4.608;2023-05-16T13:13:26;21.00;99.90
23991;DHT22;12205;50.600;4.608;2023-05-16T13:15:53;20.70;99.90
23991;DHT22;12205;50.600;4.608;2023-05-16T13:18:20;20.20;99.90
23991;DHT22;12205;50.600;4.608;2023-05-16T13:20:47;19.70;99.90
23991;DHT22;12205;50.600;4.608;2023-05-16T13:23:13;19.50;99.90
23991;DHT22;12205;50.600;4.608;2023-05-16T13:25:42;19.30;99.90
23991;DHT22;12205;50.600;4.608;2023-05-16T13:28:09;19.20;99.90
23991;DHT22;12205;50.600;4.608;2023-05-16T13:30:36;19.20;99.90
23991;DHT22;12205;50.600;4.608;2023-05-16T13:33:03;19.10;99.90
23991;DHT22;12205;50.600;4.608;2023-05-16T13:35:30;19.10;99.90
23991;DHT22;12205;50.600;4.608;2023-05-16T13:37:57;19.40;99.90
23991;DHT22;12205;50.600;4.608;2023-05-16T13:40:24;19.60;99.90
23991;DHT22;12205;50.600;4.608;2023-05-16T13:42:52;19.80;99.90
23991;DHT22;12205;50.600;4.608;2023-05-16T13:45:19;19.80;99.90
23991;DHT22;12205;50.600;4.608;2023-05-16T13:47:46;19.70;99.90
23991;DHT22;12205;50.600;4.608;2023-05-16T13:50:13;20.00;99.90
23991;DHT22;12205;50.600;4.608;2023-05-16T13:52:40;20.20;99.90
23991;DHT22;12205;50.600;4.608;2023-05-16T13:55:07;20.30;99.90
23991;DHT22;12205;50.600;4.608;2023-05-16T13:57:35;20.20;99.90
23991;DHT22;12205;50.600;4.608;2023-05-16T14:00:04;20.00;99.90
23991;DHT22;12205;50.600;4.608;2023-05-16T14:02:37;20.10;99.90
23991;DHT22;12205;50.600;4.608;2023-05-16T14:05:05;20.40;99.90
23991;DHT22;12205;50.600;4.608;2023-05-16T14:07:32;20.80;99.90
23991;DHT22;12205;50.600;4.608;2023-05-16T14:09:59;21.10;99.20
23991;DHT22;12205;50.600;4.608;2023-05-16T14:12:26;21.30;99.90
23991;DHT22;12205;50.600;4.608;2023-05-16T14:14:53;21.60;99.90
23991;DHT22;12205;50.600;4.608;2023-05-16T14:17:21;22.10;99.40
23991;DHT22;12205;50.600;4.608;2023-05-16T14:19:49;22.30;98.30
23991;DHT22;12205;50.600;4.608;2023-05-16T14:22:15;22.30;96.40
23991;DHT22;12205;50.600;4.608;2023-05-16T14:24:43;22.00;96.00
23991;DHT22;12205;50.600;4.608;2023-05-16T14:27:10;21.70;95.80
23991;DHT22;12205;50.600;4.608;2023-05-16T14:29:37;21.30;96.20
23991;DHT22;12205;50.600;4.608;2023-05-16T14:32:04;20.90;97.00
23991;DHT22;12205;50.600;4.608;2023-05-16T14:34:32;20.60;98.10
23991;DHT22;12205;50.600;4.608;2023-05-16T14:36:59;20.30;98.20
23991;DHT22;12205;50.600;4.608;2023-05-16T14:39:26;20.00;98.60
23991;DHT22;12205;50.600;4.608;2023-05-16T14:41:53;19.70;98.20
23991;DHT22;12205;50.600;4.608;2023-05-16T14:44:21;19.40;98.60
23991;DHT22;12205;50.600;4.608;2023-05-16T14:46:49;19.20;98.20
23991;DHT22;12205;50.600;4.608;2023-05-16T14:49:17;19.10;99.30
23991;DHT22;12205;50.600;4.608;2023-05-16T14:51:45;18.90;99.80
23991;DHT22;12205;50.600;4.608;2023-05-16T14:54:13;18.80;99.50
23991;DHT22;12205;50.600;4.608;2023-05-16T14:56:40;18.50;99.90
23991;DHT22;12205;50.600;4.608;2023-05-16T14:59:07;18.70;99.90
23991;DHT22;12205;50.600;4.608;2023-05-16T15:01:34;19.20;99.90
23991;DHT22;12205;50.600;4.608;2023-05-16T15:04:01;19.70;99.90
23991;DHT22;12205;50.600;4.608;2023-05-16T15:06:28;20.20;99.20
23991;DHT22;12205;50.600;4.608;2023-05-16T15:08:57;20.60;98.50
23991;DHT22;12205;50.600;4.608;2023-05-16T15:11:23;21.10;96.70
23991;DHT22;12205;50.600;4.608;2023-05-16T15:13:50;21.50;96.10
23991;DHT22;12205;50.600;4.608;2023-05-16T15:16:18;21.60;95.20
23991;DHT22;12205;50.600;4.608;2023-05-16T15:18:45;21.40;94.90
23991;DHT22;12205;50.600;4.608;2023-05-16T15:21:12;21.30;95.80
23991;DHT22;12205;50.600;4.608;2023-05-16T15:23:39;21.20;96.30
23991;DHT22;12205;50.600;4.608;2023-05-16T15:26:07;21.10;95.70
23991;DHT22;12205;50.600;4.608;2023-05-16T15:28:34;20.90;96.50
23991;DHT22;12205;50.600;4.608;2023-05-16T15:31:02;20.70;96.20
23991;DHT22;12205;50.600;4.608;2023-05-16T15:33:30;20.50;96.40
23991;DHT22;12205;50.600;4.608;2023-05-16T15:35:56;20.40;96.10
23991;DHT22;12205;50.600;4.608;2023-05-16T15:38:23;20.10;96.40
23991;DHT22;12205;50.600;4.608;2023-05-16T15:40:50;19.80;96.60
23991;DHT22;12205;50.600;4.608;2023-05-16T15:43:19;19.60;96.90
23991;DHT22;12205;50.600;4.608;2023-05-16T15:45:46;19.40;97.60